Weather reports worldwide

Advertisment
Lamezia Terme, Italy (16362): temperature & dewpoint: 17.05.2019 14:00:00 - 23.05.2019 14:00:00 (CEST)Lamezia Terme, Italy (16362): wind speed: 17.05.2019 14:00:00 - 23.05.2019 14:00:00 (CEST)Lamezia Terme, Italy (16362): wind direction: 17.05.2019 14:00:00 - 23.05.2019 14:00:00 (CEST)Lamezia Terme, Italy (16362): reduced air pressure: 17.05.2019 14:00:00 - 23.05.2019 14:00:00 (CEST)Lamezia Terme, Italy (16362): visibility: 17.05.2019 14:00:00 - 23.05.2019 14:00:00 (CEST)Lamezia Terme, Italy (16362): precipitation: 17.05.2019 14:00:00 - 23.05.2019 14:00:00 (CEST)
Date & Time tt [°C] td [°C] ff [km/h] ff [kn] dd ppp [hPa] vv [km] rr [mm]
23.05.2019 14:00:00 20,4 13,7 26 14 W 1017,2 20 -
23.05.2019 13:00:00 20,0 14,0 22 12 W - 10 -
23.05.2019 12:00:00 19,0 14,0 16 9 W - 10 -
23.05.2019 11:00:00 18,8 13,4 15 8 WSW 1018,1 10 -
23.05.2019 10:00:00 18,0 13,0 13 7 SW - 10 -
23.05.2019 09:00:00 18,0 13,0 8 4 WSW - 10 -
23.05.2019 08:00:00 17,9 13,2 0 0 N 1017,9 10 0,0
23.05.2019 07:00:00 11,0 10,0 8 4 E - 10 -
23.05.2019 06:00:00 9,0 8,0 8 4 E - 10 -
23.05.2019 05:00:00 9,9 8,8 5 3 NE 1017,0 20 -
23.05.2019 04:00:00 - - - - - - - -
23.05.2019 03:00:00 - - - - - - - -
23.05.2019 02:00:00 11,5 9,8 2 1 NNW 1017,5 20 0,0
23.05.2019 01:00:00 - - - - - - - -
23.05.2019 00:00:00 16,0 13,0 9 5 WSW - 10 -
22.05.2019 23:00:00 16,3 12,9 11 6 WSW 1017,7 20 -
22.05.2019 22:00:00 16,0 13,0 9 5 SW - 10 -
22.05.2019 21:00:00 17,0 13,0 15 8 SW - 10 -
22.05.2019 20:00:00 17,4 12,7 15 8 WSW 1017,0 20 0,0
22.05.2019 19:00:00 19,0 12,0 21 11 WSW - 10 -
22.05.2019 18:00:00 19,0 12,0 24 13 WSW - 10 -
22.05.2019 17:00:00 19,6 12,7 24 13 WSW 1016,8 20 -
22.05.2019 16:00:00 20,0 13,0 28 15 WSW - 10 -
22.05.2019 15:00:00 20,0 13,0 28 15 WSW - 10 -
22.05.2019 14:00:00 20,0 13,0 28 15 WSW - 10 -
22.05.2019 13:00:00 20,0 13,0 22 12 WSW - 10 -
22.05.2019 12:00:00 19,0 13,0 21 11 WSW - 10 -
22.05.2019 11:00:00 18,0 13,0 18 10 WSW - 10 -
22.05.2019 10:00:00 17,0 14,0 16 9 SW - 10 -
22.05.2019 09:00:00 18,0 13,0 13 7 SW - 10 -
22.05.2019 08:00:00 16,0 14,0 8 4 SSW - 10 -
22.05.2019 07:00:00 11,0 11,0 5 3 - - 10 -
22.05.2019 06:00:00 10,0 9,0 2 1 - - 10 -
22.05.2019 05:00:00 10,0 9,0 2 1 N - 10 -
22.05.2019 04:00:00 11,0 10,0 4 2 - - 10 -
22.05.2019 03:00:00 13,0 12,0 0 0 N - 10 -
22.05.2019 02:00:00 12,0 11,0 0 0 N - 10 -
22.05.2019 01:00:00 12,0 10,0 0 0 N - 10 -
22.05.2019 00:00:00 13,0 11,0 5 3 - - 10 -
21.05.2019 23:00:00 15,0 13,0 5 3 S - 10 -
21.05.2019 22:00:00 16,0 14,0 5 3 WSW - 10 -
21.05.2019 21:00:00 16,0 13,0 13 7 WSW - 10 -
21.05.2019 20:00:00 17,0 13,0 13 7 W - 10 -
21.05.2019 19:00:00 18,0 13,0 18 10 W - 10 -
21.05.2019 18:00:00 19,0 14,0 21 11 W - 10 -
21.05.2019 17:00:00 19,0 13,0 22 12 W - 10 -
21.05.2019 16:00:00 19,0 14,0 24 13 W - 10 -
21.05.2019 15:00:00 19,0 13,0 22 12 W - 10 -
21.05.2019 14:00:00 19,0 14,0 22 12 W - 10 -
21.05.2019 13:00:00 20,0 14,0 26 14 W - 10 -
21.05.2019 12:00:00 18,0 13,0 24 13 WSW - 10 -
21.05.2019 11:00:00 18,0 13,0 22 12 WSW - 10 -
21.05.2019 10:00:00 18,0 13,0 18 10 WSW - 10 -
21.05.2019 09:00:00 17,0 13,0 18 10 WSW - 10 -
21.05.2019 08:00:00 17,0 13,0 16 9 WSW - 10 -
21.05.2019 07:00:00 16,0 12,0 13 7 SW - 10 -
21.05.2019 06:00:00 16,0 12,0 13 7 WSW - 10 -
21.05.2019 05:00:00 16,0 12,0 13 7 WSW - 10 -
21.05.2019 04:00:00 15,0 11,0 16 9 W - 10 -
21.05.2019 03:00:00 16,0 12,0 15 8 W - 10 -
21.05.2019 02:00:00 16,0 11,0 16 9 W - 10 -
21.05.2019 01:00:00 16,0 11,0 16 9 W - 10 -
21.05.2019 00:00:00 16,0 11,0 11 6 W - 10 -
20.05.2019 23:00:00 16,0 11,0 13 7 W - 10 -
20.05.2019 22:00:00 16,0 12,0 8 4 WNW - 10 -
20.05.2019 21:00:00 16,0 12,0 8 4 WSW - 10 -
20.05.2019 20:00:00 16,0 12,0 13 7 W - 10 -
20.05.2019 19:00:00 18,0 12,0 16 9 W - 10 -
20.05.2019 18:00:00 19,0 12,0 18 10 W - 10 -
20.05.2019 17:00:00 20,0 11,0 21 11 W - 10 -
20.05.2019 16:00:00 19,0 12,0 18 10 W - 10 -
20.05.2019 15:00:00 19,0 11,0 22 12 W - 10 -
20.05.2019 14:00:00 19,0 10,0 24 13 W - 10 -
20.05.2019 13:00:00 19,0 11,0 21 11 W - 10 -
20.05.2019 12:00:00 19,0 14,0 18 10 W - 10 -
20.05.2019 11:00:00 19,0 13,0 15 8 W - 10 -
20.05.2019 10:00:00 18,0 12,0 13 7 SW - 10 -
20.05.2019 09:00:00 17,0 13,0 13 7 SSW - 10 -
20.05.2019 08:00:00 16,0 14,0 9 5 SSW - 10 -
20.05.2019 07:00:00 14,0 13,0 4 2 - - 10 -
20.05.2019 06:00:00 13,0 12,0 4 2 - - 10 -
20.05.2019 05:00:00 - - - - - - - -
20.05.2019 04:00:00 14,0 13,0 0 0 N - 10 -
20.05.2019 03:00:00 14,0 13,0 4 2 E - 10 -
20.05.2019 02:00:00 15,0 13,0 5 3 - - 10 -
20.05.2019 01:00:00 15,0 13,0 9 5 W - 10 -
20.05.2019 00:00:00 16,0 14,0 11 6 WSW - 10 -
19.05.2019 23:00:00 16,0 14,0 11 6 W - 10 -
19.05.2019 22:00:00 16,0 14,0 15 8 W - 10 -
19.05.2019 21:00:00 16,0 14,0 15 8 W - 10 -
19.05.2019 20:00:00 17,0 14,0 22 12 WSW - 10 -
19.05.2019 19:00:00 17,0 14,0 16 9 W - 10 -
19.05.2019 18:00:00 18,0 14,0 21 11 W - 10 -
19.05.2019 17:00:00 19,0 14,0 24 13 W - 10 -
19.05.2019 16:00:00 19,0 14,0 26 14 W - 10 -
19.05.2019 15:00:00 19,0 14,0 28 15 W - 10 -
19.05.2019 14:00:00 19,0 14,0 29 16 W - 10 -
19.05.2019 13:00:00 20,0 15,0 29 16 W - 10 -
19.05.2019 12:00:00 19,0 15,0 26 14 W - 10 -
19.05.2019 11:00:00 19,0 15,0 24 13 W - 10 -
19.05.2019 10:00:00 19,0 15,0 26 14 W - 10 -
19.05.2019 09:00:00 18,0 15,0 21 11 W - 10 -
19.05.2019 08:00:00 17,0 14,0 11 6 W - 10 -
19.05.2019 07:00:00 15,0 13,0 2 1 - - 10 -
19.05.2019 06:00:00 14,0 13,0 5 3 - - 10 -
19.05.2019 05:00:00 14,0 13,0 5 3 SW - 10 -
19.05.2019 04:00:00 15,0 13,0 5 3 - - 10 -
19.05.2019 03:00:00 15,0 13,0 8 4 NE - 10 -
19.05.2019 02:00:00 16,0 13,0 9 5 ENE - 10 -
19.05.2019 01:00:00 - - - - - - - -
19.05.2019 00:00:00 16,0 13,0 15 8 ENE - 10 -
18.05.2019 23:00:00 16,0 13,0 15 8 ENE - 10 -
18.05.2019 22:00:00 16,0 13,0 18 10 ENE - 10 -
18.05.2019 21:00:00 17,0 13,0 21 11 ENE - 10 -
18.05.2019 20:00:00 17,0 13,0 22 12 ENE - 10 -
18.05.2019 19:00:00 18,0 13,0 28 15 ENE - 10 -
18.05.2019 18:00:00 20,0 13,0 29 16 ENE - 10 -
18.05.2019 17:00:00 22,0 13,0 24 13 E - 10 -
18.05.2019 16:00:00 21,0 13,0 15 8 E - 10 -
18.05.2019 15:00:00 21,0 14,0 9 5 E - 10 -
18.05.2019 14:00:00 20,0 12,0 24 13 E - 10 -
18.05.2019 13:00:00 19,0 12,0 34 18 ENE - 10 -
18.05.2019 12:00:00 18,0 12,0 34 18 ENE - 10 -
18.05.2019 11:00:00 18,0 12,0 37 20 ENE - 10 -
18.05.2019 10:00:00 17,0 12,0 39 21 ENE - 10 -
18.05.2019 09:00:00 17,0 12,0 31 17 E - 10 -
18.05.2019 08:00:00 16,0 12,0 29 16 E - 10 -
18.05.2019 07:00:00 16,0 11,0 26 14 ENE - 10 -
18.05.2019 06:00:00 15,0 12,0 28 15 E - 10 -
18.05.2019 05:00:00 15,0 12,0 24 13 E - 10 -
18.05.2019 04:00:00 15,0 12,0 21 11 E - 10 -
18.05.2019 03:00:00 15,0 12,0 15 8 E - 10 -
18.05.2019 02:00:00 15,0 11,0 16 9 E - 10 -
18.05.2019 01:00:00 15,0 11,0 26 14 ENE - 10 -
18.05.2019 00:00:00 15,0 12,0 24 13 E - 10 -
17.05.2019 23:00:00 15,0 12,0 28 15 ENE - 10 -
17.05.2019 22:00:00 16,0 13,0 28 15 ENE - 10 -
17.05.2019 21:00:00 16,0 12,0 28 15 ENE - 10 -
17.05.2019 20:00:00 17,0 12,0 34 18 ENE - 10 -
17.05.2019 19:00:00 19,0 12,0 28 15 ENE - 10 -
17.05.2019 18:00:00 20,0 13,0 22 12 E - 10 -
17.05.2019 17:00:00 - - - - - - - -
17.05.2019 16:00:00 20,0 12,0 15 8 WSW - 10 -
17.05.2019 15:00:00 20,0 13,0 15 8 W - 10 -
17.05.2019 14:00:00 19,0 13,0 15 8 WSW - 10 -

tt = temperature
td = dewpoint
ff = wind speed
dd = wind direction
ppp = reduced air pressure
vv = visibility
rr = precipitation

Next stations